sensor_id;sensor_type;location;lat;lon;timestamp;P1;durP1;ratioP1;P2;durP2;ratioP2
52208;SDS011;38507;53.132;6.394;2022-11-20T09:16:56;15.98;;;8.63;;
52208;SDS011;38507;53.132;6.394;2022-11-20T09:19:23;13.20;;;7.95;;
52208;SDS011;38507;53.132;6.394;2022-11-20T09:21:49;12.80;;;7.32;;
52208;SDS011;38507;53.132;6.394;2022-11-20T09:24:15;15.82;;;9.23;;
52208;SDS011;38507;53.132;6.394;2022-11-20T09:26:41;14.48;;;9.30;;
52208;SDS011;38507;53.132;6.394;2022-11-20T09:29:07;15.20;;;8.15;;
52208;SDS011;38507;53.132;6.394;2022-11-20T09:31:33;13.85;;;8.63;;
52208;SDS011;38507;53.132;6.394;2022-11-20T09:33:58;13.98;;;8.25;;
52208;SDS011;38507;53.132;6.394;2022-11-20T09:36:24;18.65;;;7.63;;
52208;SDS011;38507;53.132;6.394;2022-11-20T09:38:51;13.93;;;8.55;;
52208;SDS011;38507;53.132;6.394;2022-11-20T09:44:12;12.48;;;8.00;;
52208;SDS011;38507;53.132;6.394;2022-11-20T09:47:09;13.38;;;8.13;;
52208;SDS011;38507;53.132;6.394;2022-11-20T09:52:33;16.70;;;8.15;;
52208;SDS011;38507;53.132;6.394;2022-11-20T09:55:21;12.40;;;7.85;;
52208;SDS011;38507;53.132;6.394;2022-11-20T09:57:47;12.93;;;8.30;;
52208;SDS011;38507;53.132;6.394;2022-11-20T10:00:15;14.45;;;8.40;;
52208;SDS011;38507;53.132;6.394;2022-11-20T10:05:45;12.73;;;7.82;;
52208;SDS011;38507;53.132;6.394;2022-11-20T10:11:04;14.38;;;8.45;;
52208;SDS011;38507;53.132;6.394;2022-11-20T10:29:41;15.13;;;8.48;;
52208;SDS011;38507;53.132;6.394;2022-11-20T10:37:30;14.75;;;9.00;;
52208;SDS011;38507;53.132;6.394;2022-11-20T10:39:59;13.30;;;8.40;;
52208;SDS011;38507;53.132;6.394;2022-11-20T10:48:24;11.95;;;7.90;;
52208;SDS011;38507;53.132;6.394;2022-11-20T10:50:57;13.95;;;8.30;;
52208;SDS011;38507;53.132;6.394;2022-11-20T10:56:47;15.43;;;7.90;;
52208;SDS011;38507;53.132;6.394;2022-11-20T11:02:19;13.40;;;7.78;;
52208;SDS011;38507;53.132;6.394;2022-11-20T11:04:50;12.52;;;8.02;;
52208;SDS011;38507;53.132;6.394;2022-11-20T11:07:21;12.63;;;7.55;;
52208;SDS011;38507;53.132;6.394;2022-11-20T11:10:01;12.55;;;7.95;;
52208;SDS011;38507;53.132;6.394;2022-11-20T11:15:30;12.93;;;8.05;;
52208;SDS011;38507;53.132;6.394;2022-11-20T11:18:03;11.15;;;7.03;;
52208;SDS011;38507;53.132;6.394;2022-11-20T11:20:29;11.40;;;7.43;;
52208;SDS011;38507;53.132;6.394;2022-11-20T11:22:57;14.90;;;7.72;;
52208;SDS011;38507;53.132;6.394;2022-11-20T11:25:25;13.65;;;8.35;;
52208;SDS011;38507;53.132;6.394;2022-11-20T11:27:54;13.18;;;7.78;;
52208;SDS011;38507;53.132;6.394;2022-11-20T11:30:24;14.25;;;8.05;;
52208;SDS011;38507;53.132;6.394;2022-11-20T11:33:08;11.00;;;7.25;;
52208;SDS011;38507;53.132;6.394;2022-11-20T11:41:30;10.00;;;6.68;;
52208;SDS011;38507;53.132;6.394;2022-11-20T11:49:29;11.65;;;6.22;;
52208;SDS011;38507;53.132;6.394;2022-11-20T11:52:12;8.95;;;5.15;;
52208;SDS011;38507;53.132;6.394;2022-11-20T11:55:01;10.57;;;6.05;;
52208;SDS011;38507;53.132;6.394;2022-11-20T12:06:45;6.97;;;4.23;;
52208;SDS011;38507;53.132;6.394;2022-11-20T12:09:32;7.13;;;4.63;;
52208;SDS011;38507;53.132;6.394;2022-11-20T12:12:08;7.57;;;4.60;;
52208;SDS011;38507;53.132;6.394;2022-11-20T12:14:41;8.48;;;5.60;;
52208;SDS011;38507;53.132;6.394;2022-11-20T12:17:11;9.77;;;5.25;;
52208;SDS011;38507;53.132;6.394;2022-11-20T12:19:38;6.55;;;4.22;;
52208;SDS011;38507;53.132;6.394;2022-11-20T12:22:13;8.88;;;4.20;;
52208;SDS011;38507;53.132;6.394;2022-11-20T12:43:44;9.77;;;4.95;;
52208;SDS011;38507;53.132;6.394;2022-11-20T12:51:53;7.07;;;5.05;;
52208;SDS011;38507;53.132;6.394;2022-11-20T12:57:18;7.95;;;5.00;;
52208;SDS011;38507;53.132;6.394;2022-11-20T13:02:40;7.95;;;4.88;;
52208;SDS011;38507;53.132;6.394;2022-11-20T13:05:31;7.72;;;5.03;;
52208;SDS011;38507;53.132;6.394;2022-11-20T13:08:02;8.95;;;5.32;;
52208;SDS011;38507;53.132;6.394;2022-11-20T13:10:37;9.45;;;5.22;;
52208;SDS011;38507;53.132;6.394;2022-11-20T13:13:17;7.47;;;4.63;;
52208;SDS011;38507;53.132;6.394;2022-11-20T13:16:00;8.52;;;5.40;;
52208;SDS011;38507;53.132;6.394;2022-11-20T13:18:36;8.05;;;5.55;;
52208;SDS011;38507;53.132;6.394;2022-11-20T13:24:05;7.65;;;4.93;;
52208;SDS011;38507;53.132;6.394;2022-11-20T13:26:32;7.22;;;4.80;;
52208;SDS011;38507;53.132;6.394;2022-11-20T13:29:03;7.25;;;4.65;;
52208;SDS011;38507;53.132;6.394;2022-11-20T13:31:42;8.00;;;4.68;;
52208;SDS011;38507;53.132;6.394;2022-11-20T13:34:12;8.90;;;4.90;;
52208;SDS011;38507;53.132;6.394;2022-11-20T13:36:49;8.07;;;4.82;;
52208;SDS011;38507;53.132;6.394;2022-11-20T13:39:26;8.18;;;4.68;;
52208;SDS011;38507;53.132;6.394;2022-11-20T13:41:57;9.43;;;5.30;;
52208;SDS011;38507;53.132;6.394;2022-11-20T13:44:38;8.15;;;5.07;;
52208;SDS011;38507;53.132;6.394;2022-11-20T13:47:26;8.20;;;4.90;;
52208;SDS011;38507;53.132;6.394;2022-11-20T13:49:53;8.38;;;5.40;;
52208;SDS011;38507;53.132;6.394;2022-11-20T13:52:41;7.53;;;5.15;;
52208;SDS011;38507;53.132;6.394;2022-11-20T14:00:50;8.45;;;4.82;;
52208;SDS011;38507;53.132;6.394;2022-11-20T14:03:22;7.30;;;4.28;;
52208;SDS011;38507;53.132;6.394;2022-11-20T14:05:51;7.93;;;4.93;;
52208;SDS011;38507;53.132;6.394;2022-11-20T14:13:39;7.75;;;4.82;;
52208;SDS011;38507;53.132;6.394;2022-11-20T14:16:18;7.03;;;4.90;;
52208;SDS011;38507;53.132;6.394;2022-11-20T14:18:48;9.25;;;5.00;;
52208;SDS011;38507;53.132;6.394;2022-11-20T14:21:23;8.57;;;4.70;;
52208;SDS011;38507;53.132;6.394;2022-11-20T14:26:45;8.13;;;4.50;;
52208;SDS011;38507;53.132;6.394;2022-11-20T14:29:14;7.78;;;4.47;;
52208;SDS011;38507;53.132;6.394;2022-11-20T14:31:43;6.78;;;4.70;;
52208;SDS011;38507;53.132;6.394;2022-11-20T14:34:14;8.38;;;5.38;;
52208;SDS011;38507;53.132;6.394;2022-11-20T14:36:43;7.95;;;4.63;;
52208;SDS011;38507;53.132;6.394;2022-11-20T14:39:11;8.43;;;4.88;;
52208;SDS011;38507;53.132;6.394;2022-11-20T14:41:51;8.10;;;4.82;;
52208;SDS011;38507;53.132;6.394;2022-11-20T14:44:17;8.25;;;4.72;;
52208;SDS011;38507;53.132;6.394;2022-11-20T14:46:52;8.70;;;5.00;;
52208;SDS011;38507;53.132;6.394;2022-11-20T14:49:20;8.25;;;5.60;;
52208;SDS011;38507;53.132;6.394;2022-11-20T14:51:46;7.97;;;5.20;;
52208;SDS011;38507;53.132;6.394;2022-11-20T14:54:12;8.05;;;5.05;;
52208;SDS011;38507;53.132;6.394;2022-11-20T14:59:23;10.70;;;7.32;;
52208;SDS011;38507;53.132;6.394;2022-11-20T15:01:57;11.38;;;7.05;;
52208;SDS011;38507;53.132;6.394;2022-11-20T15:04:25;10.75;;;5.47;;
52208;SDS011;38507;53.132;6.394;2022-11-20T15:06:52;8.45;;;5.80;;
52208;SDS011;38507;53.132;6.394;2022-11-20T15:09:22;9.07;;;5.32;;
52208;SDS011;38507;53.132;6.394;2022-11-20T15:11:53;13.05;;;5.57;;
52208;SDS011;38507;53.132;6.394;2022-11-20T15:14:24;6.93;;;4.72;;
52208;SDS011;38507;53.132;6.394;2022-11-20T15:16:51;9.07;;;5.18;;
52208;SDS011;38507;53.132;6.394;2022-11-20T15:19:21;10.05;;;5.78;;
52208;SDS011;38507;53.132;6.394;2022-11-20T15:21:49;10.13;;;6.82;;
52208;SDS011;38507;53.132;6.394;2022-11-20T15:24:15;9.38;;;5.88;;
52208;SDS011;38507;53.132;6.394;2022-11-20T15:26:41;7.90;;;5.32;;
52208;SDS011;38507;53.132;6.394;2022-11-20T15:29:08;9.30;;;5.80;;
52208;SDS011;38507;53.132;6.394;2022-11-20T15:31:37;12.38;;;6.82;;
52208;SDS011;38507;53.132;6.394;2022-11-20T15:34:13;12.20;;;7.38;;
52208;SDS011;38507;53.132;6.394;2022-11-20T15:36:43;13.45;;;7.63;;
52208;SDS011;38507;53.132;6.394;2022-11-20T15:39:09;11.75;;;7.25;;
52208;SDS011;38507;53.132;6.394;2022-11-20T15:41:36;9.50;;;5.85;;
52208;SDS011;38507;53.132;6.394;2022-11-20T15:44:03;10.23;;;6.18;;
52208;SDS011;38507;53.132;6.394;2022-11-20T15:46:32;10.75;;;6.50;;
52208;SDS011;38507;53.132;6.394;2022-11-20T15:49:03;13.57;;;5.97;;
52208;SDS011;38507;53.132;6.394;2022-11-20T15:51:33;9.07;;;5.72;;
52208;SDS011;38507;53.132;6.394;2022-11-20T15:54:05;8.77;;;5.53;;
52208;SDS011;38507;53.132;6.394;2022-11-20T15:56:36;9.63;;;5.57;;
52208;SDS011;38507;53.132;6.394;2022-11-20T15:59:02;11.50;;;6.40;;
52208;SDS011;38507;53.132;6.394;2022-11-20T16:01:28;9.65;;;6.10;;
52208;SDS011;38507;53.132;6.394;2022-11-20T16:03:54;11.35;;;6.78;;
52208;SDS011;38507;53.132;6.394;2022-11-20T16:06:19;11.20;;;7.03;;
52208;SDS011;38507;53.132;6.394;2022-11-20T16:08:45;12.32;;;7.45;;
52208;SDS011;38507;53.132;6.394;2022-11-20T16:11:15;11.05;;;7.45;;
52208;SDS011;38507;53.132;6.394;2022-11-20T16:13:42;13.43;;;7.57;;
52208;SDS011;38507;53.132;6.394;2022-11-20T16:16:28;11.15;;;7.18;;
52208;SDS011;38507;53.132;6.394;2022-11-20T16:18:57;13.63;;;7.90;;
52208;SDS011;38507;53.132;6.394;2022-11-20T16:21:23;12.48;;;8.02;;
52208;SDS011;38507;53.132;6.394;2022-11-20T16:24:01;13.52;;;8.23;;
52208;SDS011;38507;53.132;6.394;2022-11-20T16:26:29;12.77;;;8.10;;
52208;SDS011;38507;53.132;6.394;2022-11-20T16:28:55;19.67;;;9.02;;
52208;SDS011;38507;53.132;6.394;2022-11-20T16:31:20;15.10;;;9.05;;
52208;SDS011;38507;53.132;6.394;2022-11-20T16:33:50;14.48;;;9.00;;
52208;SDS011;38507;53.132;6.394;2022-11-20T16:36:17;12.90;;;8.40;;
52208;SDS011;38507;53.132;6.394;2022-11-20T16:38:44;15.52;;;8.45;;
52208;SDS011;38507;53.132;6.394;2022-11-20T16:41:10;16.48;;;9.27;;
52208;SDS011;38507;53.132;6.394;2022-11-20T16:43:45;15.48;;;9.40;;
52208;SDS011;38507;53.132;6.394;2022-11-20T16:46:15;19.98;;;10.05;;
52208;SDS011;38507;53.132;6.394;2022-11-20T16:48:42;16.17;;;9.55;;
52208;SDS011;38507;53.132;6.394;2022-11-20T16:51:08;17.88;;;10.45;;
52208;SDS011;38507;53.132;6.394;2022-11-20T16:53:35;13.60;;;9.40;;
52208;SDS011;38507;53.132;6.394;2022-11-20T16:56:15;15.07;;;9.57;;
52208;SDS011;38507;53.132;6.394;2022-11-20T16:58:45;15.45;;;9.43;;
52208;SDS011;38507;53.132;6.394;2022-11-20T17:01:14;14.95;;;9.48;;
52208;SDS011;38507;53.132;6.394;2022-11-20T17:03:45;14.57;;;9.82;;
52208;SDS011;38507;53.132;6.394;2022-11-20T17:06:18;15.55;;;9.93;;
52208;SDS011;38507;53.132;6.394;2022-11-20T17:08:47;16.50;;;9.75;;
52208;SDS011;38507;53.132;6.394;2022-11-20T17:11:14;14.35;;;9.52;;
52208;SDS011;38507;53.132;6.394;2022-11-20T17:13:41;16.10;;;9.38;;
52208;SDS011;38507;53.132;6.394;2022-11-20T17:16:08;17.20;;;9.65;;
52208;SDS011;38507;53.132;6.394;2022-11-20T17:18:35;16.55;;;9.73;;
52208;SDS011;38507;53.132;6.394;2022-11-20T17:21:01;14.98;;;10.15;;
52208;SDS011;38507;53.132;6.394;2022-11-20T17:23:32;16.42;;;10.10;;
52208;SDS011;38507;53.132;6.394;2022-11-20T17:26:04;19.95;;;10.20;;
52208;SDS011;38507;53.132;6.394;2022-11-20T17:28:34;17.23;;;10.50;;
52208;SDS011;38507;53.132;6.394;2022-11-20T17:31:02;17.70;;;10.52;;
52208;SDS011;38507;53.132;6.394;2022-11-20T17:33:30;15.43;;;9.25;;
52208;SDS011;38507;53.132;6.394;2022-11-20T17:35:56;16.02;;;10.38;;
52208;SDS011;38507;53.132;6.394;2022-11-20T17:38:22;16.08;;;10.63;;
52208;SDS011;38507;53.132;6.394;2022-11-20T17:40:48;16.92;;;10.13;;
52208;SDS011;38507;53.132;6.394;2022-11-20T17:43:13;18.55;;;11.18;;
52208;SDS011;38507;53.132;6.394;2022-11-20T17:45:39;16.13;;;10.05;;
52208;SDS011;38507;53.132;6.394;2022-11-20T17:48:05;18.95;;;11.65;;
52208;SDS011;38507;53.132;6.394;2022-11-20T17:50:31;20.05;;;12.10;;
52208;SDS011;38507;53.132;6.394;2022-11-20T17:52:56;20.95;;;11.80;;
52208;SDS011;38507;53.132;6.394;2022-11-20T17:55:22;16.83;;;11.00;;
52208;SDS011;38507;53.132;6.394;2022-11-20T17:57:48;20.48;;;11.73;;
52208;SDS011;38507;53.132;6.394;2022-11-20T18:00:17;23.05;;;12.52;;
52208;SDS011;38507;53.132;6.394;2022-11-20T18:02:44;21.30;;;12.30;;
52208;SDS011;38507;53.132;6.394;2022-11-20T18:05:09;16.48;;;11.27;;
52208;SDS011;38507;53.132;6.394;2022-11-20T18:07:35;23.10;;;13.35;;
52208;SDS011;38507;53.132;6.394;2022-11-20T18:10:03;26.08;;;13.95;;
52208;SDS011;38507;53.132;6.394;2022-11-20T18:12:29;26.67;;;14.70;;
52208;SDS011;38507;53.132;6.394;2022-11-20T18:14:55;26.27;;;13.07;;
52208;SDS011;38507;53.132;6.394;2022-11-20T18:17:20;26.35;;;14.40;;
52208;SDS011;38507;53.132;6.394;2022-11-20T18:19:46;22.88;;;11.57;;
52208;SDS011;38507;53.132;6.394;2022-11-20T18:22:13;17.55;;;11.27;;
52208;SDS011;38507;53.132;6.394;2022-11-20T18:24:40;19.40;;;11.00;;
52208;SDS011;38507;53.132;6.394;2022-11-20T18:27:07;17.67;;;10.90;;
52208;SDS011;38507;53.132;6.394;2022-11-20T18:29:38;17.25;;;10.43;;
52208;SDS011;38507;53.132;6.394;2022-11-20T18:32:03;18.63;;;10.60;;
52208;SDS011;38507;53.132;6.394;2022-11-20T18:34:29;18.42;;;11.02;;
52208;SDS011;38507;53.132;6.394;2022-11-20T18:36:55;16.50;;;10.55;;
52208;SDS011;38507;53.132;6.394;2022-11-20T18:39:20;18.60;;;10.70;;
52208;SDS011;38507;53.132;6.394;2022-11-20T18:41:47;16.00;;;9.60;;
52208;SDS011;38507;53.132;6.394;2022-11-20T18:44:31;19.17;;;11.43;;
52208;SDS011;38507;53.132;6.394;2022-11-20T18:47:16;18.90;;;11.18;;
52208;SDS011;38507;53.132;6.394;2022-11-20T18:49:51;19.38;;;10.50;;
52208;SDS011;38507;53.132;6.394;2022-11-20T18:52:19;18.60;;;10.43;;
52208;SDS011;38507;53.132;6.394;2022-11-20T18:54:48;17.15;;;10.60;;
52208;SDS011;38507;53.132;6.394;2022-11-20T18:57:17;17.75;;;11.30;;
52208;SDS011;38507;53.132;6.394;2022-11-20T18:59:44;16.48;;;10.50;;
52208;SDS011;38507;53.132;6.394;2022-11-20T19:02:11;19.45;;;11.27;;
52208;SDS011;38507;53.132;6.394;2022-11-20T19:04:41;19.10;;;11.80;;
52208;SDS011;38507;53.132;6.394;2022-11-20T19:07:07;19.45;;;12.20;;
52208;SDS011;38507;53.132;6.394;2022-11-20T19:09:36;18.80;;;11.63;;
52208;SDS011;38507;53.132;6.394;2022-11-20T19:12:03;19.63;;;12.02;;
52208;SDS011;38507;53.132;6.394;2022-11-20T19:14:29;21.58;;;11.95;;
52208;SDS011;38507;53.132;6.394;2022-11-20T19:16:54;24.35;;;12.57;;
52208;SDS011;38507;53.132;6.394;2022-11-20T19:19:20;21.58;;;12.93;;
52208;SDS011;38507;53.132;6.394;2022-11-20T19:21:46;21.65;;;13.38;;
52208;SDS011;38507;53.132;6.394;2022-11-20T19:24:11;18.85;;;12.00;;
52208;SDS011;38507;53.132;6.394;2022-11-20T19:26:38;22.60;;;13.05;;
52208;SDS011;38507;53.132;6.394;2022-11-20T19:29:04;24.20;;;13.02;;
52208;SDS011;38507;53.132;6.394;2022-11-20T19:31:30;25.35;;;12.80;;
52208;SDS011;38507;53.132;6.394;2022-11-20T19:33:57;22.65;;;14.50;;
52208;SDS011;38507;53.132;6.394;2022-11-20T19:36:34;22.50;;;13.45;;
52208;SDS011;38507;53.132;6.394;2022-11-20T19:39:02;25.95;;;13.95;;
52208;SDS011;38507;53.132;6.394;2022-11-20T19:41:33;30.10;;;15.00;;
52208;SDS011;38507;53.132;6.394;2022-11-20T19:44:04;21.67;;;13.40;;
52208;SDS011;38507;53.132;6.394;2022-11-20T19:46:33;23.13;;;13.45;;
52208;SDS011;38507;53.132;6.394;2022-11-20T19:48:59;22.20;;;13.93;;
52208;SDS011;38507;53.132;6.394;2022-11-20T19:51:29;23.75;;;13.70;;
52208;SDS011;38507;53.132;6.394;2022-11-20T19:53:57;21.67;;;13.02;;
52208;SDS011;38507;53.132;6.394;2022-11-20T19:56:24;22.63;;;13.43;;
52208;SDS011;38507;53.132;6.394;2022-11-20T19:58:51;22.50;;;13.63;;
52208;SDS011;38507;53.132;6.394;2022-11-20T20:01:18;21.52;;;12.40;;
52208;SDS011;38507;53.132;6.394;2022-11-20T20:03:46;23.70;;;13.77;;
52208;SDS011;38507;53.132;6.394;2022-11-20T20:06:16;24.20;;;14.35;;
52208;SDS011;38507;53.132;6.394;2022-11-20T20:08:46;26.07;;;14.60;;
52208;SDS011;38507;53.132;6.394;2022-11-20T20:11:19;22.45;;;13.70;;
52208;SDS011;38507;53.132;6.394;2022-11-20T20:13:45;22.30;;;13.60;;
52208;SDS011;38507;53.132;6.394;2022-11-20T20:16:13;23.42;;;14.82;;
52208;SDS011;38507;53.132;6.394;2022-11-20T20:18:41;26.13;;;14.75;;
52208;SDS011;38507;53.132;6.394;2022-11-20T20:21:09;27.33;;;15.57;;
52208;SDS011;38507;53.132;6.394;2022-11-20T20:23:36;26.90;;;15.30;;
52208;SDS011;38507;53.132;6.394;2022-11-20T20:26:03;23.98;;;13.93;;
52208;SDS011;38507;53.132;6.394;2022-11-20T20:28:30;23.30;;;14.35;;
52208;SDS011;38507;53.132;6.394;2022-11-20T20:30:56;26.48;;;14.52;;
52208;SDS011;38507;53.132;6.394;2022-11-20T20:33:29;28.92;;;15.93;;
52208;SDS011;38507;53.132;6.394;2022-11-20T20:35:54;24.13;;;13.82;;
52208;SDS011;38507;53.132;6.394;2022-11-20T20:38:22;21.25;;;13.52;;
52208;SDS011;38507;53.132;6.394;2022-11-20T20:40:48;24.08;;;14.32;;
52208;SDS011;38507;53.132;6.394;2022-11-20T20:43:14;26.67;;;14.75;;
52208;SDS011;38507;53.132;6.394;2022-11-20T20:45:43;25.63;;;15.80;;
52208;SDS011;38507;53.132;6.394;2022-11-20T20:48:10;27.02;;;15.48;;
52208;SDS011;38507;53.132;6.394;2022-11-20T20:50:36;23.95;;;15.07;;
52208;SDS011;38507;53.132;6.394;2022-11-20T20:53:02;24.45;;;13.93;;
52208;SDS011;38507;53.132;6.394;2022-11-20T20:55:28;24.15;;;14.07;;
52208;SDS011;38507;53.132;6.394;2022-11-20T20:57:53;24.45;;;14.88;;
52208;SDS011;38507;53.132;6.394;2022-11-20T21:00:19;25.45;;;14.45;;
52208;SDS011;38507;53.132;6.394;2022-11-20T21:02:45;25.80;;;14.43;;
52208;SDS011;38507;53.132;6.394;2022-11-20T21:05:10;24.55;;;14.48;;
52208;SDS011;38507;53.132;6.394;2022-11-20T21:07:36;22.88;;;14.20;;
52208;SDS011;38507;53.132;6.394;2022-11-20T21:10:22;23.25;;;13.73;;
52208;SDS011;38507;53.132;6.394;2022-11-20T21:12:48;27.65;;;15.57;;
52208;SDS011;38507;53.132;6.394;2022-11-20T21:15:14;24.60;;;14.20;;
52208;SDS011;38507;53.132;6.394;2022-11-20T21:17:39;25.33;;;15.73;;
52208;SDS011;38507;53.132;6.394;2022-11-20T21:20:08;28.23;;;15.40;;
52208;SDS011;38507;53.132;6.394;2022-11-20T21:22:55;27.05;;;15.45;;
52208;SDS011;38507;53.132;6.394;2022-11-20T21:25:20;25.95;;;16.10;;
52208;SDS011;38507;53.132;6.394;2022-11-20T21:27:46;27.02;;;14.57;;
52208;SDS011;38507;53.132;6.394;2022-11-20T21:30:12;27.08;;;15.60;;
52208;SDS011;38507;53.132;6.394;2022-11-20T21:32:37;23.88;;;14.90;;
52208;SDS011;38507;53.132;6.394;2022-11-20T21:35:04;26.23;;;15.77;;
52208;SDS011;38507;53.132;6.394;2022-11-20T21:37:30;25.00;;;14.75;;
52208;SDS011;38507;53.132;6.394;2022-11-20T21:39:55;26.60;;;14.75;;
52208;SDS011;38507;53.132;6.394;2022-11-20T21:42:21;25.42;;;14.75;;
52208;SDS011;38507;53.132;6.394;2022-11-20T21:44:46;25.40;;;15.07;;
52208;SDS011;38507;53.132;6.394;2022-11-20T21:47:12;24.75;;;14.35;;
52208;SDS011;38507;53.132;6.394;2022-11-20T21:49:38;24.58;;;14.10;;
52208;SDS011;38507;53.132;6.394;2022-11-20T21:52:03;25.83;;;14.75;;
52208;SDS011;38507;53.132;6.394;2022-11-20T21:54:29;27.65;;;15.43;;
52208;SDS011;38507;53.132;6.394;2022-11-20T21:56:55;22.48;;;13.32;;
52208;SDS011;38507;53.132;6.394;2022-11-20T21:59:21;23.98;;;14.80;;
52208;SDS011;38507;53.132;6.394;2022-11-20T22:01:47;23.30;;;13.95;;
52208;SDS011;38507;53.132;6.394;2022-11-20T22:04:13;21.40;;;13.43;;
52208;SDS011;38507;53.132;6.394;2022-11-20T22:06:39;24.98;;;13.73;;
52208;SDS011;38507;53.132;6.394;2022-11-20T22:09:06;22.92;;;14.13;;
52208;SDS011;38507;53.132;6.394;2022-11-20T22:11:31;23.67;;;14.25;;
52208;SDS011;38507;53.132;6.394;2022-11-20T22:13:57;24.83;;;14.40;;
52208;SDS011;38507;53.132;6.394;2022-11-20T22:16:42;26.50;;;14.65;;
52208;SDS011;38507;53.132;6.394;2022-11-20T22:19:07;24.05;;;14.52;;
52208;SDS011;38507;53.132;6.394;2022-11-20T22:21:33;27.48;;;15.32;;
52208;SDS011;38507;53.132;6.394;2022-11-20T22:23:59;25.98;;;14.68;;
52208;SDS011;38507;53.132;6.394;2022-11-20T22:26:26;28.67;;;15.07;;
52208;SDS011;38507;53.132;6.394;2022-11-20T22:28:54;26.25;;;14.63;;
52208;SDS011;38507;53.132;6.394;2022-11-20T22:31:21;23.83;;;14.60;;
52208;SDS011;38507;53.132;6.394;2022-11-20T22:33:48;29.95;;;15.95;;
52208;SDS011;38507;53.132;6.394;2022-11-20T22:36:15;26.17;;;14.48;;
52208;SDS011;38507;53.132;6.394;2022-11-20T22:38:46;28.95;;;14.95;;
52208;SDS011;38507;53.132;6.394;2022-11-20T22:41:22;25.50;;;15.52;;
52208;SDS011;38507;53.132;6.394;2022-11-20T22:43:54;24.98;;;14.68;;
52208;SDS011;38507;53.132;6.394;2022-11-20T22:46:22;28.13;;;15.93;;
52208;SDS011;38507;53.132;6.394;2022-11-20T22:51:15;26.25;;;15.18;;
52208;SDS011;38507;53.132;6.394;2022-11-20T22:53:42;26.17;;;15.38;;
52208;SDS011;38507;53.132;6.394;2022-11-20T22:56:08;26.05;;;14.98;;
52208;SDS011;38507;53.132;6.394;2022-11-20T22:58:39;26.38;;;14.55;;
52208;SDS011;38507;53.132;6.394;2022-11-20T23:01:10;25.60;;;15.02;;
52208;SDS011;38507;53.132;6.394;2022-11-20T23:03:38;23.48;;;15.05;;
52208;SDS011;38507;53.132;6.394;2022-11-20T23:06:05;26.90;;;15.07;;
52208;SDS011;38507;53.132;6.394;2022-11-20T23:08:32;24.02;;;15.07;;
52208;SDS011;38507;53.132;6.394;2022-11-20T23:10:58;27.65;;;15.48;;
52208;SDS011;38507;53.132;6.394;2022-11-20T23:13:29;24.25;;;14.50;;
52208;SDS011;38507;53.132;6.394;2022-11-20T23:16:00;25.90;;;14.45;;
52208;SDS011;38507;53.132;6.394;2022-11-20T23:18:36;25.08;;;15.07;;
52208;SDS011;38507;53.132;6.394;2022-11-20T23:23:38;26.80;;;15.35;;
52208;SDS011;38507;53.132;6.394;2022-11-20T23:26:05;24.85;;;14.80;;
52208;SDS011;38507;53.132;6.394;2022-11-20T23:28:36;27.17;;;15.60;;
52208;SDS011;38507;53.132;6.394;2022-11-20T23:31:02;26.30;;;15.40;;
52208;SDS011;38507;53.132;6.394;2022-11-20T23:33:28;24.92;;;14.77;;
52208;SDS011;38507;53.132;6.394;2022-11-20T23:35:54;24.45;;;14.93;;
52208;SDS011;38507;53.132;6.394;2022-11-20T23:38:20;28.88;;;15.95;;
52208;SDS011;38507;53.132;6.394;2022-11-20T23:40:46;30.23;;;16.48;;
52208;SDS011;38507;53.132;6.394;2022-11-20T23:43:16;27.63;;;15.10;;
52208;SDS011;38507;53.132;6.394;2022-11-20T23:45:43;26.80;;;16.15;;
52208;SDS011;38507;53.132;6.394;2022-11-20T23:48:10;28.27;;;15.95;;
52208;SDS011;38507;53.132;6.394;2022-11-20T23:50:36;25.52;;;14.80;;
52208;SDS011;38507;53.132;6.394;2022-11-20T23:53:02;28.77;;;15.38;;
52208;SDS011;38507;53.132;6.394;2022-11-20T23:55:28;29.15;;;15.60;;
52208;SDS011;38507;53.132;6.394;2022-11-20T23:57:54;28.08;;;15.65;;
